Time;durP1;ratioP1;P1;durP2;ratioP2;P2;SDS_P1;SDS_P2;PMS_P1;PMS_P2;Temp;Humidity;BMP_temperature;BMP_pressure;BME280_temperature;BME280_humidity;BME280_pressure;Samples;Min_cycle;Max_cycle;Signal;HPM_P1;HPM_P2
2023/04/24 00:00:05;;;;;;;8.82;6.88;;;11.50;99.90;;;;;;5001419;28;20124;-56
2023/04/24 00:02:32;;;;;;;8.82;5.78;;;11.50;99.90;;;;;;5010601;28;20042;-53
2023/04/24 00:05:02;;;;;;;8.52;5.78;;;11.50;99.90;;;;;;5005255;28;20038;-55
2023/04/24 00:07:29;;;;;;;7.88;5.60;;;11.50;99.90;;;;;;5001923;28;20432;-53
2023/04/24 00:09:55;;;;;;;11.00;7.00;;;11.60;99.90;;;;;;4993082;28;20498;-56
2023/04/24 00:12:20;;;;;;;7.20;6.50;;;11.60;99.90;;;;;;5005115;28;20252;-55
2023/04/24 00:14:46;;;;;;;8.38;7.47;;;11.60;99.90;;;;;;4994853;28;20136;-56
2023/04/24 00:17:12;;;;;;;8.82;5.70;;;11.60;99.90;;;;;;5004385;28;20143;-56
2023/04/24 00:19:38;;;;;;;8.23;6.38;;;11.50;99.90;;;;;;5009129;28;20046;-53
2023/04/24 00:22:04;;;;;;;10.25;7.18;;;11.50;99.90;;;;;;5012711;28;20042;-56
2023/04/24 00:24:29;;;;;;;6.88;6.22;;;11.60;99.90;;;;;;5012630;28;20053;-56
2023/04/24 00:26:55;;;;;;;9.57;6.28;;;11.60;99.90;;;;;;5008300;28;20065;-56
2023/04/24 00:29:21;;;;;;;6.32;5.72;;;11.60;99.90;;;;;;4989716;28;20404;-56
2023/04/24 00:31:48;;;;;;;7.53;5.90;;;11.50;99.90;;;;;;5009367;28;20038;-55
2023/04/24 00:34:13;;;;;;;5.70;4.97;;;11.60;99.90;;;;;;4990713;28;20045;-55
2023/04/24 00:36:40;;;;;;;5.97;4.53;;;11.60;99.90;;;;;;4991305;28;20448;-56
2023/04/24 00:39:08;;;;;;;5.50;5.00;;;11.60;99.90;;;;;;5008453;28;20046;-56
2023/04/24 00:41:35;;;;;;;9.80;6.28;;;11.60;99.90;;;;;;5010699;28;20203;-57
2023/04/24 00:44:00;;;;;;;7.82;5.72;;;11.50;99.90;;;;;;5008633;28;20120;-55
2023/04/24 00:46:26;;;;;;;6.30;5.70;;;11.60;99.90;;;;;;5009885;28;20464;-56
2023/04/24 00:48:52;;;;;;;14.02;5.30;;;11.60;99.90;;;;;;5008415;28;20038;-54
2023/04/24 00:51:18;;;;;;;8.45;5.25;;;11.60;99.90;;;;;;4995877;28;20132;-56
2023/04/24 00:53:44;;;;;;;6.20;5.60;;;11.60;99.90;;;;;;5006595;28;20046;-57
2023/04/24 00:56:10;;;;;;;9.30;5.65;;;11.50;99.90;;;;;;5004549;28;20065;-56
2023/04/24 00:58:36;;;;;;;5.47;4.93;;;11.50;99.90;;;;;;5010421;28;20417;-56
2023/04/24 01:01:02;;;;;;;6.43;5.53;;;11.50;99.90;;;;;;5005208;28;20113;-55
2023/04/24 01:03:31;;;;;;;6.60;4.82;;;11.50;99.90;;;;;;4977540;28;20516;-57
2023/04/24 01:05:57;;;;;;;7.85;5.78;;;11.50;99.90;;;;;;5005375;28;20508;-57
2023/04/24 01:08:24;;;;;;;6.68;5.65;;;11.50;99.90;;;;;;5005894;28;20046;-56
2023/04/24 01:10:54;;;;;;;7.45;5.47;;;11.50;99.90;;;;;;4993019;28;20034;-57
2023/04/24 01:13:21;;;;;;;7.60;5.90;;;11.50;99.90;;;;;;5006468;28;20104;-55
2023/04/24 01:15:47;;;;;;;6.07;5.07;;;11.50;99.90;;;;;;5009741;28;20137;-57
2023/04/24 01:18:13;;;;;;;6.72;5.50;;;11.50;99.90;;;;;;5004094;28;20327;-56
2023/04/24 01:20:44;;;;;;;6.47;5.10;;;11.50;99.90;;;;;;5008143;28;20570;-55
2023/04/24 01:23:10;;;;;;;6.55;5.07;;;11.50;99.90;;;;;;5010261;28;20434;-56
2023/04/24 01:25:37;;;;;;;5.82;5.22;;;11.50;99.90;;;;;;5008937;28;20515;-56
2023/04/24 01:28:03;;;;;;;5.88;5.28;;;11.50;99.90;;;;;;5008286;28;20560;-55
2023/04/24 01:30:29;;;;;;;6.15;5.30;;;11.50;99.90;;;;;;5004380;28;20492;-57
2023/04/24 01:32:55;;;;;;;6.72;6.03;;;11.50;99.90;;;;;;4990771;28;20050;-57
2023/04/24 01:35:21;;;;;;;6.03;5.30;;;11.50;99.90;;;;;;4988610;28;20096;-57
2023/04/24 01:37:47;;;;;;;7.60;6.07;;;11.40;99.90;;;;;;5009873;28;20041;-57
2023/04/24 01:40:13;;;;;;;6.70;6.05;;;11.40;99.90;;;;;;4980417;28;20481;-57
2023/04/24 01:42:41;;;;;;;7.25;5.85;;;11.40;99.90;;;;;;4991201;28;20133;-56
2023/04/24 01:45:10;;;;;;;6.68;5.93;;;11.40;99.90;;;;;;4990397;28;20052;-57
2023/04/24 01:47:36;;;;;;;7.25;5.43;;;11.50;99.90;;;;;;5003414;28;20054;-57
2023/04/24 01:50:03;;;;;;;8.20;6.38;;;11.40;99.90;;;;;;4991929;28;20049;-55
2023/04/24 01:52:31;;;;;;;6.75;5.18;;;11.40;99.90;;;;;;5005552;28;20357;-55
2023/04/24 01:54:59;;;;;;;7.32;5.57;;;11.40;99.90;;;;;;5006625;28;20451;-56
2023/04/24 01:57:25;;;;;;;6.78;6.07;;;11.40;99.90;;;;;;5009714;28;20038;-56
2023/04/24 01:59:51;;;;;;;7.78;6.00;;;11.40;99.90;;;;;;5009527;28;20037;-55
2023/04/24 02:02:17;;;;;;;11.80;6.93;;;11.40;99.90;;;;;;5008622;28;20320;-56
2023/04/24 02:04:43;;;;;;;7.43;6.05;;;11.30;99.90;;;;;;5008639;28;20048;-56
2023/04/24 02:07:09;;;;;;;7.90;6.25;;;11.30;99.90;;;;;;5000826;28;20049;-57
2023/04/24 02:09:34;;;;;;;6.85;5.85;;;11.30;99.90;;;;;;5000551;28;20125;-57
2023/04/24 02:12:00;;;;;;;6.60;5.40;;;11.30;99.90;;;;;;5005362;28;20188;-55
2023/04/24 02:14:26;;;;;;;7.85;6.10;;;11.30;99.90;;;;;;4993512;28;20049;-56
2023/04/24 02:16:53;;;;;;;7.25;6.20;;;11.30;99.90;;;;;;4994820;28;20037;-56
2023/04/24 02:19:19;;;;;;;7.38;5.85;;;11.30;99.90;;;;;;5002961;28;20057;-56
2023/04/24 02:21:45;;;;;;;8.98;6.97;;;11.30;99.90;;;;;;5006165;28;20109;-57
2023/04/24 02:24:10;;;;;;;7.53;6.35;;;11.30;99.90;;;;;;4991098;28;20481;-56
2023/04/24 02:26:36;;;;;;;6.97;6.25;;;11.30;99.90;;;;;;5002379;28;20088;-55
2023/04/24 02:29:02;;;;;;;9.73;7.32;;;11.30;99.90;;;;;;4998157;28;20056;-57
2023/04/24 02:31:27;;;;;;;8.30;6.75;;;11.30;99.90;;;;;;5010528;28;20267;-56
2023/04/24 02:33:53;;;;;;;8.45;7.55;;;11.30;99.90;;;;;;4979899;28;20058;-56
2023/04/24 02:36:19;;;;;;;6.97;6.28;;;11.30;99.90;;;;;;5006177;28;20046;-56
2023/04/24 02:38:45;;;;;;;7.70;6.18;;;11.20;99.90;;;;;;5002370;28;20081;-55
2023/04/24 02:41:11;;;;;;;8.02;6.80;;;11.20;99.90;;;;;;5002027;28;20066;-57
2023/04/24 02:43:36;;;;;;;7.80;7.05;;;11.30;99.90;;;;;;5005014;28;20045;-56
2023/04/24 02:46:02;;;;;;;8.95;7.47;;;11.30;99.90;;;;;;4998605;28;20050;-56
2023/04/24 02:48:28;;;;;;;7.93;6.82;;;11.30;99.90;;;;;;5006542;28;20500;-58
2023/04/24 02:50:54;;;;;;;7.03;6.30;;;11.30;99.90;;;;;;4998223;28;20057;-57
2023/04/24 02:53:20;;;;;;;7.80;6.65;;;11.30;99.90;;;;;;5000013;28;20042;-56
2023/04/24 02:55:45;;;;;;;8.77;7.80;;;11.30;99.90;;;;;;4976182;28;20057;-55
2023/04/24 02:58:12;;;;;;;8.52;7.43;;;11.30;99.90;;;;;;5011749;28;20050;-55
2023/04/24 03:00:39;;;;;;;8.75;7.45;;;11.30;99.90;;;;;;4992402;28;20071;-56
2023/04/24 03:03:05;;;;;;;11.48;8.15;;;11.30;99.90;;;;;;5005233;28;20029;-56
2023/04/24 03:05:31;;;;;;;9.30;7.80;;;11.30;99.90;;;;;;5010099;28;20184;-57
2023/04/24 03:07:57;;;;;;;8.70;7.80;;;11.30;99.90;;;;;;5012681;28;20534;-58
2023/04/24 03:10:22;;;;;;;10.27;7.65;;;11.30;99.90;;;;;;5010640;28;20109;-57
2023/04/24 03:12:48;;;;;;;10.23;8.25;;;11.30;99.90;;;;;;4997409;28;20042;-57
2023/04/24 03:15:14;;;;;;;10.48;9.38;;;11.30;99.90;;;;;;4989757;28;20053;-58
2023/04/24 03:17:40;;;;;;;11.80;8.15;;;11.30;99.90;;;;;;4989290;28;20084;-56
2023/04/24 03:20:08;;;;;;;9.75;8.48;;;11.20;99.90;;;;;;5000441;28;20049;-57
2023/04/24 03:22:34;;;;;;;6.07;4.68;;;11.20;99.90;;;;;;5006666;28;20041;-58
2023/04/24 03:25:00;;;;;;;5.30;4.05;;;11.00;99.90;;;;;;5007076;28;20136;-58
2023/04/24 03:27:26;;;;;;;6.70;3.80;;;11.00;99.90;;;;;;5013409;28;20045;-57
2023/04/24 03:29:55;;;;;;;4.68;3.05;;;10.90;99.90;;;;;;5011381;28;20034;-58
2023/04/24 03:32:22;;;;;;;3.50;2.88;;;10.90;99.90;;;;;;4991197;28;20045;-57
2023/04/24 03:34:51;;;;;;;4.93;2.90;;;10.80;99.90;;;;;;4974725;28;20096;-58
2023/04/24 03:37:17;;;;;;;3.47;2.30;;;10.80;99.90;;;;;;5007079;28;20467;-57
2023/04/24 03:39:43;;;;;;;2.40;1.90;;;10.80;99.90;;;;;;5009506;28;20045;-55
2023/04/24 03:42:09;;;;;;;3.88;1.73;;;10.80;99.90;;;;;;5011780;28;20540;-56
2023/04/24 03:44:35;;;;;;;2.97;1.73;;;10.70;99.90;;;;;;4990825;28;20069;-57
2023/04/24 03:47:01;;;;;;;3.10;1.90;;;10.70;99.90;;;;;;5004564;28;20065;-57
2023/04/24 03:49:27;;;;;;;2.55;1.83;;;10.70;99.90;;;;;;5014049;28;20513;-56
2023/04/24 03:51:53;;;;;;;3.53;2.28;;;10.70;99.90;;;;;;5008963;28;20554;-58
2023/04/24 03:54:19;;;;;;;3.97;1.77;;;10.70;99.90;;;;;;4989768;28;20448;-56
2023/04/24 03:56:45;;;;;;;4.97;1.83;;;10.70;99.90;;;;;;5001895;28;20168;-58
2023/04/24 03:59:11;;;;;;;3.28;1.90;;;10.60;99.90;;;;;;4999278;28;20659;-56
2023/04/24 04:01:37;;;;;;;2.88;1.60;;;10.60;99.90;;;;;;4998816;28;20065;-57
2023/04/24 04:04:04;;;;;;;2.90;1.77;;;10.60;99.90;;;;;;4998278;28;20128;-57
2023/04/24 04:06:30;;;;;;;2.72;2.00;;;10.60;99.90;;;;;;4976777;28;20146;-57
2023/04/24 04:08:57;;;;;;;3.75;2.30;;;10.60;99.90;;;;;;4992910;28;20156;-56
2023/04/24 04:11:23;;;;;;;5.35;2.90;;;10.50;99.90;;;;;;5001106;28;20484;-57
2023/04/24 04:13:48;;;;;;;3.60;3.20;;;10.50;99.90;;;;;;5010792;28;20116;-57
2023/04/24 04:16:16;;;;;;;5.40;2.60;;;10.50;99.90;;;;;;5010163;28;20184;-57
2023/04/24 04:18:43;;;;;;;6.35;3.35;;;10.40;99.90;;;;;;4995940;28;20050;-57
2023/04/24 04:21:08;;;;;;;4.95;3.50;;;10.40;99.90;;;;;;5009451;28;20041;-57
2023/04/24 04:23:34;;;;;;;3.25;2.85;;;10.40;99.90;;;;;;5007348;28;20042;-55
2023/04/24 04:26:00;;;;;;;5.43;3.20;;;10.40;99.90;;;;;;5005060;28;20128;-57
2023/04/24 04:28:26;;;;;;;3.97;2.85;;;10.30;99.90;;;;;;5008967;28;20777;-57
2023/04/24 04:30:53;;;;;;;5.28;3.15;;;10.40;99.90;;;;;;5009867;28;20152;-57
2023/04/24 04:33:22;;;;;;;6.60;2.80;;;10.30;99.90;;;;;;5007899;28;20050;-56
2023/04/24 04:35:56;;;;;;;4.03;2.88;;;10.30;99.90;;;;;;5001920;28;20064;-56
2023/04/24 04:38:22;;;;;;;7.28;3.80;;;10.30;99.90;;;;;;4981412;28;20065;-56
2023/04/24 04:40:48;;;;;;;7.60;4.40;;;10.30;99.90;;;;;;5009002;28;20034;-58
2023/04/24 04:43:17;;;;;;;8.27;4.97;;;10.30;99.90;;;;;;4992202;28;20056;-57
2023/04/24 04:45:43;;;;;;;7.20;5.45;;;10.30;99.90;;;;;;5002939;28;20046;-57
2023/04/24 04:48:12;;;;;;;8.45;5.40;;;10.30;99.90;;;;;;5005909;28;20401;-57
2023/04/24 04:50:38;;;;;;;8.98;6.07;;;10.30;99.90;;;;;;5002685;28;20042;-58
2023/04/24 04:53:04;;;;;;;12.57;5.45;;;10.30;99.90;;;;;;5014820;28;20057;-57
2023/04/24 04:55:30;;;;;;;9.35;5.78;;;10.30;99.90;;;;;;5003461;28;20065;-57
2023/04/24 04:57:56;;;;;;;10.55;6.90;;;10.20;99.90;;;;;;5005106;28;20552;-57
2023/04/24 05:00:22;;;;;;;8.18;5.90;;;10.20;99.90;;;;;;5009905;28;20520;-57
2023/04/24 05:02:49;;;;;;;10.73;6.40;;;10.20;99.90;;;;;;5011073;28;20223;-57
2023/04/24 05:05:16;;;;;;;10.40;6.63;;;10.20;99.90;;;;;;5007483;28;20034;-56
2023/04/24 05:07:42;;;;;;;8.75;6.10;;;10.20;99.90;;;;;;5003411;28;20069;-57
2023/04/24 05:10:09;;;;;;;8.52;5.70;;;10.20;99.90;;;;;;5008571;28;20396;-56
2023/04/24 05:12:34;;;;;;;9.48;5.80;;;10.20;99.90;;;;;;5004763;28;21585;-54
2023/04/24 05:15:00;;;;;;;10.82;6.53;;;10.20;99.90;;;;;;4968929;28;20042;-57
2023/04/24 05:17:26;;;;;;;9.60;6.82;;;10.20;99.90;;;;;;4975939;28;20045;-59
2023/04/24 05:19:51;;;;;;;10.50;7.28;;;10.20;99.90;;;;;;4991745;28;20084;-56
2023/04/24 05:22:20;;;;;;;13.68;7.10;;;10.20;99.90;;;;;;5005703;28;20050;-57
2023/04/24 05:24:46;;;;;;;12.13;7.85;;;10.20;99.90;;;;;;5016196;28;20052;-56
2023/04/24 05:27:12;;;;;;;13.55;8.50;;;10.20;99.90;;;;;;5011612;28;20049;-57
2023/04/24 05:29:38;;;;;;;10.45;6.93;;;10.10;99.90;;;;;;5008705;28;20042;-56
2023/04/24 05:32:04;;;;;;;9.10;6.15;;;10.10;99.90;;;;;;4985600;28;20053;-56
2023/04/24 05:34:30;;;;;;;9.70;6.82;;;10.10;99.90;;;;;;4988275;28;20042;-57
2023/04/24 05:36:56;;;;;;;8.75;5.82;;;10.00;99.90;;;;;;5003393;28;20049;-57
2023/04/24 05:39:22;;;;;;;10.60;5.13;;;10.00;99.90;;;;;;4993863;28;20140;-56
2023/04/24 05:41:47;;;;;;;7.47;5.07;;;10.00;99.90;;;;;;4996790;28;20088;-56
2023/04/24 05:44:13;;;;;;;7.60;4.68;;;10.00;99.90;;;;;;5009052;28;20037;-57
2023/04/24 05:46:39;;;;;;;8.05;5.05;;;10.10;99.90;;;;;;4991651;28;20041;-57
2023/04/24 05:49:04;;;;;;;11.35;5.53;;;10.10;99.90;;;;;;5010943;28;20038;-57
2023/04/24 05:51:31;;;;;;;6.13;4.95;;;10.10;99.90;;;;;;5012829;28;20048;-57
2023/04/24 05:53:57;;;;;;;7.75;4.28;;;10.10;99.90;;;;;;5004359;28;20604;-56
2023/04/24 05:56:23;;;;;;;6.00;3.95;;;10.10;99.90;;;;;;5005982;28;20040;-56
2023/04/24 05:58:49;;;;;;;8.05;3.67;;;10.00;99.90;;;;;;4993791;28;20432;-57
2023/04/24 06:01:15;;;;;;;8.02;2.90;;;10.10;99.90;;;;;;4992142;28;20076;-57
2023/04/24 06:03:41;;;;;;;6.95;2.70;;;10.00;99.90;;;;;;5001062;28;20045;-56
2023/04/24 06:06:08;;;;;;;4.65;2.90;;;10.00;99.90;;;;;;5003665;28;20568;-56
2023/04/24 06:08:37;;;;;;;5.15;2.40;;;10.00;99.90;;;;;;5010347;28;20046;-57
2023/04/24 06:11:02;;;;;;;6.65;2.22;;;10.00;99.90;;;;;;5009087;28;20104;-57
2023/04/24 06:13:28;;;;;;;5.72;2.03;;;10.00;99.90;;;;;;4984537;28;20108;-55
2023/04/24 06:15:54;;;;;;;6.82;2.15;;;10.00;99.90;;;;;;5016749;28;20033;-57
2023/04/24 06:18:20;;;;;;;4.93;1.70;;;10.00;99.90;;;;;;4992419;28;20045;-56
2023/04/24 06:20:46;;;;;;;6.38;1.88;;;9.90;99.90;;;;;;4997208;28;20035;-55
2023/04/24 06:23:12;;;;;;;2.97;2.05;;;10.00;99.90;;;;;;4987106;28;20034;-57
2023/04/24 06:25:38;;;;;;;4.47;2.70;;;9.90;99.90;;;;;;4968030;28;20050;-56
2023/04/24 06:28:04;;;;;;;6.00;2.80;;;9.90;99.90;;;;;;5006490;28;20588;-57
2023/04/24 06:30:31;;;;;;;7.15;2.17;;;9.90;99.90;;;;;;5008799;28;20060;-57
2023/04/24 06:32:56;;;;;;;5.82;2.85;;;9.90;99.90;;;;;;5003402;28;20501;-57
2023/04/24 06:35:22;;;;;;;4.55;2.75;;;9.90;99.90;;;;;;4983748;28;20058;-56
2023/04/24 06:37:56;;;;;;;8.77;3.35;;;9.90;99.90;;;;;;4991109;28;20049;-57
2023/04/24 06:40:22;;;;;;;6.05;3.50;;;9.80;99.90;;;;;;4975736;28;20104;-58
2023/04/24 06:42:47;;;;;;;5.80;3.30;;;9.90;99.90;;;;;;5010753;28;20422;-57
2023/04/24 06:45:13;;;;;;;5.68;3.22;;;9.80;99.90;;;;;;5008888;28;20048;-56
2023/04/24 06:47:39;;;;;;;6.90;3.05;;;9.80;99.90;;;;;;5008816;28;20037;-57
2023/04/24 06:50:05;;;;;;;6.05;3.10;;;9.80;99.90;;;;;;4987725;28;20053;-57
2023/04/24 06:52:34;;;;;;;8.48;3.72;;;9.80;99.90;;;;;;4991076;28;20096;-57
2023/04/24 06:55:02;;;;;;;8.55;4.13;;;9.80;99.90;;;;;;5007842;28;20046;-57
2023/04/24 06:57:28;;;;;;;10.52;4.70;;;9.70;99.90;;;;;;5009506;28;20121;-57
2023/04/24 06:59:54;;;;;;;9.88;5.97;;;9.70;99.90;;;;;;4994335;28;20125;-56
2023/04/24 07:02:20;;;;;;;12.70;6.53;;;9.70;99.90;;;;;;4989534;28;20492;-56
2023/04/24 07:04:46;;;;;;;13.90;8.02;;;9.70;99.90;;;;;;5004371;28;20056;-56
2023/04/24 07:07:14;;;;;;;17.30;9.55;;;9.70;99.90;;;;;;4990777;28;20452;-56
2023/04/24 07:09:42;;;;;;;16.52;9.48;;;9.60;99.90;;;;;;5007024;28;20044;-57
2023/04/24 07:12:08;;;;;;;19.05;12.45;;;9.60;99.90;;;;;;5006893;28;20042;-56
2023/04/24 07:14:34;;;;;;;20.23;12.48;;;9.60;99.90;;;;;;5005997;28;20037;-56
2023/04/24 07:17:01;;;;;;;17.88;10.43;;;9.50;99.90;;;;;;5004083;28;20498;-56
2023/04/24 07:19:26;;;;;;;18.15;11.98;;;9.50;99.90;;;;;;5006617;28;20041;-57
2023/04/24 07:21:53;;;;;;;18.35;12.35;;;9.50;99.90;;;;;;5003719;28;20511;-56
2023/04/24 07:24:19;;;;;;;26.35;12.98;;;9.60;99.90;;;;;;5006816;28;20231;-57
2023/04/24 07:26:46;;;;;;;20.35;11.57;;;9.60;99.90;;;;;;5001302;28;20039;-55
2023/04/24 07:29:14;;;;;;;16.83;11.05;;;9.50;99.90;;;;;;5002904;28;20485;-56
2023/04/24 07:31:41;;;;;;;19.67;10.77;;;9.60;99.90;;;;;;5000148;28;20034;-56
2023/04/24 07:34:06;;;;;;;17.42;10.48;;;9.60;99.90;;;;;;4992564;28;20057;-57
2023/04/24 07:36:32;;;;;;;14.63;10.55;;;9.60;99.90;;;;;;4997478;28;20041;-56
2023/04/24 07:38:58;;;;;;;18.60;12.27;;;9.50;99.90;;;;;;5005148;28;20108;-56
2023/04/24 07:41:24;;;;;;;21.23;12.82;;;9.50;99.90;;;;;;4981471;28;20504;-57
2023/04/24 07:43:50;;;;;;;25.60;14.50;;;9.40;99.90;;;;;;5011803;28;20045;-57
2023/04/24 07:46:16;;;;;;;19.75;13.65;;;9.40;99.90;;;;;;4995391;28;20309;-57
2023/04/24 07:48:41;;;;;;;23.55;13.50;;;9.30;99.90;;;;;;5009992;28;20037;-57
2023/04/24 07:51:09;;;;;;;20.55;13.02;;;9.30;99.90;;;;;;5017730;28;20076;-56
2023/04/24 07:53:35;;;;;;;22.23;14.90;;;9.30;99.90;;;;;;5010341;28;20075;-57
2023/04/24 07:56:01;;;;;;;24.73;13.77;;;9.30;99.90;;;;;;5001316;28;20296;-55
2023/04/24 07:58:27;;;;;;;20.08;12.60;;;9.30;99.90;;;;;;4998752;28;20041;-58
2023/04/24 08:00:52;;;;;;;21.05;13.95;;;9.30;99.90;;;;;;4998867;28;20412;-57
2023/04/24 08:03:19;;;;;;;20.48;12.40;;;9.40;99.90;;;;;;4990840;28;20081;-57
2023/04/24 08:05:45;;;;;;;21.48;11.88;;;9.40;99.90;;;;;;5016431;28;20134;-58
2023/04/24 08:08:11;;;;;;;18.20;11.27;;;9.40;99.90;;;;;;5008220;28;20033;-58
2023/04/24 08:10:37;;;;;;;18.25;10.85;;;9.40;99.90;;;;;;5012590;28;20052;-56
2023/04/24 08:13:03;;;;;;;13.80;10.32;;;9.40;99.90;;;;;;4993689;28;20044;-57
2023/04/24 08:15:28;;;;;;;16.23;9.60;;;9.50;99.90;;;;;;4993689;28;20033;-57
2023/04/24 08:17:54;;;;;;;13.27;8.77;;;9.50;99.90;;;;;;5000384;28;20512;-56
2023/04/24 08:20:22;;;;;;;15.48;8.10;;;9.60;99.90;;;;;;4980947;28;20050;-58
2023/04/24 08:22:48;;;;;;;15.55;8.85;;;9.70;99.90;;;;;;4994295;28;20049;-57
2023/04/24 08:25:14;;;;;;;14.00;7.70;;;9.80;99.90;;;;;;5010171;28;20060;-56
2023/04/24 08:27:40;;;;;;;13.75;7.60;;;9.80;99.90;;;;;;5007837;28;20405;-56
2023/04/24 08:30:07;;;;;;;11.05;7.55;;;9.80;99.90;;;;;;4978372;28;20048;-55
2023/04/24 08:32:33;;;;;;;9.65;6.82;;;9.90;99.90;;;;;;4999529;28;20061;-58
2023/04/24 08:34:59;;;;;;;12.90;6.72;;;9.80;99.90;;;;;;5013900;28;20476;-56
2023/04/24 08:37:27;;;;;;;11.40;6.35;;;9.90;99.90;;;;;;5021124;28;20041;-58
2023/04/24 08:39:53;;;;;;;14.30;7.30;;;9.90;99.90;;;;;;5008771;28;20116;-57
2023/04/24 08:42:20;;;;;;;15.02;6.85;;;9.80;99.90;;;;;;4999307;28;20494;-57
2023/04/24 08:44:48;;;;;;;13.55;7.60;;;9.80;99.90;;;;;;5006378;28;20559;-57
2023/04/24 08:47:15;;;;;;;13.52;7.47;;;9.80;99.90;;;;;;4991273;28;20041;-57
2023/04/24 08:49:42;;;;;;;17.67;7.85;;;9.80;99.90;;;;;;5003526;28;20121;-57
2023/04/24 08:52:08;;;;;;;13.73;7.45;;;9.70;99.90;;;;;;5008359;28;20040;-57
2023/04/24 08:54:35;;;;;;;16.05;7.32;;;9.80;99.90;;;;;;4989602;28;20038;-58
2023/04/24 08:57:05;;;;;;;22.05;7.45;;;9.80;99.90;;;;;;5015160;28;20037;-56
2023/04/24 08:59:32;;;;;;;12.98;6.97;;;9.70;99.90;;;;;;5006537;28;20073;-56
2023/04/24 09:01:57;;;;;;;19.33;6.72;;;9.70;99.90;;;;;;5033175;22;20034;-61
2023/04/24 09:04:24;;;;;;;16.58;6.47;;;9.70;99.90;;;;;;5019418;28;20049;-60
2023/04/24 09:06:58;;;;;;;11.93;5.95;;;9.70;99.90;;;;;;5009942;28;20037;-61
2023/04/24 09:09:24;;;;;;;12.07;5.20;;;9.80;99.90;;;;;;5030631;28;20034;-61
2023/04/24 09:11:54;;;;;;;10.20;4.00;;;9.80;99.90;;;;;;5028661;28;20165;-62
2023/04/24 09:14:20;;;;;;;15.30;4.60;;;9.90;99.90;;;;;;5013128;28;20095;-62
2023/04/24 09:16:47;;;;;;;12.55;4.07;;;10.00;99.90;;;;;;5029351;28;20563;-61
2023/04/24 09:19:13;;;;;;;10.68;4.10;;;10.00;99.90;;;;;;5026633;28;20041;-61
2023/04/24 09:21:40;;;;;;;13.98;4.22;;;10.00;99.90;;;;;;5011319;28;20534;-60
2023/04/24 09:24:18;;;;;;;15.27;4.95;;;10.10;99.90;;;;;;5021006;28;20198;-61
2023/04/24 09:26:44;;;;;;;13.32;4.03;;;10.20;99.90;;;;;;5009198;28;20109;-62
2023/04/24 09:29:19;;;;;;;13.57;4.80;;;10.20;99.90;;;;;;5029580;28;20072;-61
2023/04/24 09:31:46;;;;;;;9.90;4.40;;;10.30;99.90;;;;;;5035821;28;20045;-60
2023/04/24 09:34:12;;;;;;;14.05;4.35;;;10.30;99.90;;;;;;5023077;28;20038;-61
2023/04/24 09:36:41;;;;;;;13.98;4.18;;;10.30;99.90;;;;;;5035746;28;20068;-63
2023/04/24 09:39:11;;;;;;;13.25;4.25;;;10.20;99.90;;;;;;5021065;28;20028;-62
2023/04/24 09:41:45;;;;;;;12.35;3.92;;;10.30;99.90;;;;;;5019562;28;20103;-61
2023/04/24 09:44:22;;;;;;;12.77;3.72;;;10.30;99.90;;;;;;5036331;28;20059;-62
2023/04/24 09:46:56;;;;;;;9.85;3.05;;;10.40;99.90;;;;;;5004329;28;20435;-62
2023/04/24 09:49:33;;;;;;;16.08;3.53;;;10.30;99.90;;;;;;5034421;28;20085;-61
2023/04/24 09:52:11;;;;;;;7.88;2.78;;;10.10;99.90;;;;;;5022960;28;20053;-60
2023/04/24 09:54:38;;;;;;;13.60;3.65;;;10.10;99.90;;;;;;4995448;28;20803;-59
2023/04/24 09:57:05;;;;;;;11.90;3.15;;;10.10;99.90;;;;;;5006921;28;20039;-62
2023/04/24 09:59:31;;;;;;;10.80;3.25;;;10.00;99.90;;;;;;5012063;28;20042;-60
2023/04/24 10:01:58;;;;;;;11.73;3.08;;;10.00;99.90;;;;;;5020465;28;20561;-60
2023/04/24 10:04:26;;;;;;;12.55;2.83;;;10.00;99.90;;;;;;5031741;28;20068;-61
2023/04/24 10:06:56;;;;;;;12.05;2.72;;;10.00;99.90;;;;;;5035002;28;20059;-61
2023/04/24 10:09:25;;;;;;;7.30;2.63;;;10.00;99.90;;;;;;5033626;28;20049;-63
2023/04/24 10:11:53;;;;;;;9.25;2.95;;;10.10;99.90;;;;;;5029181;28;20559;-61
2023/04/24 10:14:22;;;;;;;10.27;3.13;;;10.10;99.90;;;;;;5015794;28;20059;-61
2023/04/24 10:16:49;;;;;;;8.10;2.78;;;10.20;99.90;;;;;;5029200;28;20128;-60
2023/04/24 10:19:18;;;;;;;8.13;2.13;;;10.30;99.90;;;;;;5030211;28;20045;-60
2023/04/24 10:21:47;;;;;;;11.80;2.20;;;10.10;99.90;;;;;;5034755;28;20045;-62
2023/04/24 10:24:15;;;;;;;11.40;2.47;;;10.00;99.90;;;;;;5021131;28;20037;-61
2023/04/24 10:26:41;;;;;;;8.32;2.40;;;10.00;99.90;;;;;;5032144;28;20088;-60
2023/04/24 10:29:11;;;;;;;11.00;2.67;;;9.80;99.90;;;;;;5033217;28;20352;-60
2023/04/24 10:31:38;;;;;;;10.68;2.50;;;9.80;99.90;;;;;;5005312;28;20034;-60
2023/04/24 10:34:09;;;;;;;9.20;2.28;;;9.70;99.90;;;;;;5028001;28;20038;-62
2023/04/24 10:36:38;;;;;;;5.53;1.98;;;9.80;99.90;;;;;;5014037;28;20045;-61
2023/04/24 10:39:08;;;;;;;10.18;2.28;;;9.80;99.90;;;;;;5049138;28;20104;-60
2023/04/24 10:41:37;;;;;;;10.70;2.53;;;9.80;99.90;;;;;;5023362;28;20037;-60
2023/04/24 10:44:12;;;;;;;7.57;2.42;;;9.80;99.90;;;;;;5015673;28;20052;-61
2023/04/24 10:46:42;;;;;;;11.00;2.20;;;9.90;99.90;;;;;;5022940;28;20041;-63
2023/04/24 10:49:08;;;;;;;8.18;2.05;;;10.00;99.90;;;;;;5039930;28;20057;-61
2023/04/24 10:52:08;;;;;;;8.27;2.47;;;10.10;99.90;;;;;;5024934;28;20077;-61
2023/04/24 10:54:40;;;;;;;6.20;2.17;;;10.10;99.90;;;;;;4980387;28;20053;-62
2023/04/24 10:57:24;;;;;;;7.03;2.22;;;10.20;99.90;;;;;;5013956;28;20037;-60
2023/04/24 11:00:10;;;;;;;9.60;1.65;;;10.20;99.90;;;;;;5008167;28;20033;-61
2023/04/24 11:02:37;;;;;;;5.35;1.55;;;10.30;99.90;;;;;;5015319;28;20496;-61
2023/04/24 11:05:04;;;;;;;7.10;2.28;;;10.20;99.90;;;;;;5003834;28;20040;-61
2023/04/24 11:07:50;;;;;;;5.93;1.60;;;10.20;99.90;;;;;;5025330;28;20037;-60
2023/04/24 11:10:28;;;;;;;5.85;1.60;;;10.10;99.90;;;;;;5025946;28;20041;-63
2023/04/24 11:12:54;;;;;;;14.18;1.80;;;10.00;99.90;;;;;;5020446;28;20515;-60
2023/04/24 11:15:19;;;;;;;6.25;1.55;;;9.80;99.90;;;;;;5000448;28;20083;-60
2023/04/24 11:17:46;;;;;;;6.28;1.70;;;9.50;99.90;;;;;;5020925;28;20492;-60
2023/04/24 11:20:17;;;;;;;8.15;1.88;;;9.50;99.90;;;;;;5021344;28;20046;-61
2023/04/24 11:22:43;;;;;;;10.43;1.60;;;9.40;99.90;;;;;;5003166;28;20057;-63
2023/04/24 11:25:11;;;;;;;4.38;1.30;;;9.40;99.90;;;;;;5018920;28;20037;-61
2023/04/24 11:27:48;;;;;;;5.88;2.03;;;9.50;99.90;;;;;;5017656;28;20649;-60
2023/04/24 11:30:18;;;;;;;6.80;1.92;;;9.50;99.90;;;;;;5022858;28;20049;-61
2023/04/24 11:32:48;;;;;;;8.75;1.98;;;9.70;99.90;;;;;;5029475;28;20049;-64
2023/04/24 11:35:16;;;;;;;9.30;1.80;;;9.80;99.90;;;;;;5024962;28;20034;-61
2023/04/24 11:37:45;;;;;;;8.68;1.70;;;9.70;99.90;;;;;;5027499;28;20045;-61
2023/04/24 11:40:13;;;;;;;6.53;1.70;;;9.70;99.90;;;;;;5019667;28;20339;-61
2023/04/24 11:42:43;;;;;;;4.90;1.52;;;9.80;99.90;;;;;;5017948;28;22520;-61
2023/04/24 11:45:14;;;;;;;6.07;1.15;;;9.90;99.90;;;;;;5011441;28;20493;-63
2023/04/24 11:47:41;;;;;;;5.35;1.58;;;9.90;99.90;;;;;;5023061;28;20437;-61
2023/04/24 11:50:09;;;;;;;6.65;1.23;;;9.90;99.90;;;;;;5021075;28;20034;-60
2023/04/24 11:52:40;;;;;;;7.15;1.48;;;9.90;99.90;;;;;;5032261;28;20077;-60
2023/04/24 11:55:26;;;;;;;5.10;1.10;;;9.90;99.90;;;;;;5025513;28;20069;-60
2023/04/24 11:57:57;;;;;;;6.10;1.80;;;9.70;99.90;;;;;;5025785;28;20568;-60
2023/04/24 12:00:29;;;;;;;5.00;1.20;;;9.70;99.90;;;;;;5024379;28;20073;-60
2023/04/24 12:03:06;;;;;;;5.55;1.30;;;9.80;99.90;;;;;;5023304;28;20040;-61
2023/04/24 12:05:33;;;;;;;6.68;1.30;;;9.90;99.90;;;;;;5016097;28;20041;-61
2023/04/24 12:07:59;;;;;;;7.57;1.42;;;10.00;99.90;;;;;;5007475;28;20047;-61
2023/04/24 12:10:27;;;;;;;11.25;1.52;;;10.10;99.90;;;;;;5029393;28;20136;-61
2023/04/24 12:12:56;;;;;;;6.57;0.90;;;10.20;99.90;;;;;;5030019;28;20283;-61
2023/04/24 12:15:23;;;;;;;7.40;1.10;;;10.20;99.90;;;;;;5022059;28;20073;-61
2023/04/24 12:17:52;;;;;;;7.40;1.10;;;10.20;99.90;;;;;;5016905;28;20065;-63
2023/04/24 12:20:30;;;;;;;9.88;1.23;;;10.30;99.90;;;;;;5020703;28;20109;-61
2023/04/24 12:22:59;;;;;;;7.55;1.30;;;10.40;99.90;;;;;;5023855;28;20396;-61
2023/04/24 12:25:29;;;;;;;9.60;1.67;;;10.50;99.90;;;;;;5024424;28;20120;-60
2023/04/24 12:28:04;;;;;;;8.15;1.13;;;10.40;99.90;;;;;;5044409;28;20047;-63
2023/04/24 12:30:32;;;;;;;4.55;1.10;;;10.50;99.90;;;;;;5025153;28;20041;-61
2023/04/24 12:33:00;;;;;;;7.07;1.20;;;10.70;99.90;;;;;;5006932;28;20077;-60
2023/04/24 12:35:28;;;;;;;2.50;1.00;;;11.00;99.90;;;;;;5023869;28;20049;-61
2023/04/24 12:37:54;;;;;;;3.85;0.95;;;11.10;99.90;;;;;;5022755;28;20516;-61
2023/04/24 12:40:21;;;;;;;4.82;1.15;;;11.10;99.90;;;;;;5015638;28;20046;-64
2023/04/24 12:42:51;;;;;;;3.08;0.80;;;11.00;99.90;;;;;;5005439;28;20048;-61
2023/04/24 12:45:18;;;;;;;3.83;0.77;;;10.70;99.90;;;;;;5016561;28;20050;-61